createdAt,value
2019-04-30T00:02:15.885Z,75.96
2019-04-30T00:04:47.748Z,75.67
2019-04-30T00:07:19.083Z,75.63
2019-04-30T00:09:49.231Z,75.69
2019-04-30T00:12:19.041Z,75.71
2019-04-30T00:14:48.200Z,75.95
2019-04-30T00:17:19.671Z,75.90
2019-04-30T00:19:50.471Z,75.57
2019-04-30T00:22:30.979Z,75.64
2019-04-30T00:24:50.220Z,75.34
2019-04-30T00:27:21.044Z,75.52
2019-04-30T00:29:50.372Z,75.62
2019-04-30T00:32:19.488Z,75.64
2019-04-30T00:34:48.639Z,75.75
2019-04-30T00:37:18.820Z,76.25
2019-04-30T00:39:50.848Z,76.27
2019-04-30T00:42:24.256Z,76.31
2019-04-30T00:44:49.968Z,76.26
2019-04-30T00:47:19.129Z,76.24
2019-04-30T00:49:52.047Z,76.20
2019-04-30T00:52:19.231Z,76.18
2019-04-30T00:54:48.345Z,76.30
2019-04-30T00:57:17.530Z,76.41
2019-04-30T00:59:48.046Z,76.43
2019-04-30T01:02:32.245Z,76.53
2019-04-30T01:05:05.244Z,76.56
2019-04-30T01:07:32.870Z,76.31
2019-04-30T01:10:02.080Z,76.21
2019-04-30T01:12:36.362Z,76.21
2019-04-30T01:15:06.552Z,76.05
2019-04-30T01:17:33.588Z,76.25
2019-04-30T01:20:03.051Z,76.23
2019-04-30T01:22:32.850Z,76.09
2019-04-30T01:25:11.715Z,75.90
2019-04-30T01:27:33.279Z,75.92
2019-04-30T01:30:04.075Z,76.00
2019-04-30T01:32:33.352Z,76.12
2019-04-30T01:35:02.505Z,76.10
2019-04-30T01:37:32.893Z,75.99
2019-04-30T01:40:03.035Z,76.29
2019-04-30T01:42:33.384Z,76.40
2019-04-30T01:45:02.553Z,76.47
2019-04-30T01:47:31.712Z,76.60
2019-04-30T01:50:04.719Z,76.41
2019-04-30T01:53:04.832Z,76.44
2019-04-30T01:55:56.122Z,76.47
2019-04-30T01:58:33.588Z,76.61
2019-04-30T02:01:06.635Z,76.42
2019-04-30T02:03:35.814Z,76.44
2019-04-30T02:06:04.951Z,76.47
2019-04-30T02:08:34.254Z,76.51
2019-04-30T02:11:03.427Z,76.47
2019-04-30T02:13:34.590Z,76.35
2019-04-30T02:16:03.560Z,76.65
2019-04-30T02:18:32.705Z,76.81
2019-04-30T02:21:01.836Z,76.84
2019-04-30T02:23:30.991Z,76.81
2019-04-30T02:26:00.404Z,77.08
2019-04-30T02:28:30.644Z,77.08
2019-04-30T02:31:00.576Z,76.93
2019-04-30T02:33:31.417Z,76.84
2019-04-30T02:36:11.068Z,77.19
2019-04-30T02:38:43.685Z,77.31
2019-04-30T02:41:13.339Z,77.12
2019-04-30T02:43:43.187Z,77.29
2019-04-30T02:46:14.976Z,77.15
2019-04-30T02:48:46.251Z,77.09
2019-04-30T02:51:22.546Z,77.33
2019-04-30T02:54:13.269Z,77.50
2019-04-30T02:56:44.391Z,77.49
2019-04-30T02:59:13.581Z,77.48
2019-04-30T03:01:42.885Z,77.71
2019-04-30T03:04:12.026Z,77.61
2019-04-30T03:06:41.140Z,77.83
2019-04-30T03:09:10.990Z,77.88
2019-04-30T03:11:40.900Z,77.98
2019-04-30T03:14:10.906Z,78.29
2019-04-30T03:17:00.370Z,78.35
2019-04-30T03:20:03.436Z,78.33
2019-04-30T03:22:31.728Z,78.28
2019-04-30T03:25:00.949Z,78.04
2019-04-30T03:27:30.295Z,77.92
2019-04-30T03:30:00.205Z,77.84
2019-04-30T03:32:35.748Z,77.87
2019-04-30T03:35:03.232Z,77.92
2019-04-30T03:37:31.247Z,78.33
2019-04-30T03:40:00.729Z,78.72
2019-04-30T03:42:29.969Z,78.77
2019-04-30T03:44:59.341Z,78.78
2019-04-30T03:47:30.088Z,78.69
2019-04-30T03:50:00.005Z,78.64
2019-04-30T03:52:29.396Z,78.50
2019-04-30T03:54:59.625Z,78.38
2019-04-30T03:57:30.284Z,78.31
2019-04-30T03:59:59.676Z,78.43
2019-04-30T04:02:53.654Z,78.31
2019-04-30T04:05:41.824Z,78.13
2019-04-30T04:08:23.238Z,78.30
2019-04-30T04:10:56.700Z,78.39
2019-04-30T04:13:25.878Z,78.54
2019-04-30T04:15:55.078Z,78.48
2019-04-30T04:18:24.215Z,78.68
2019-04-30T04:21:07.685Z,78.78
2019-04-30T04:23:24.271Z,78.86
2019-04-30T04:25:53.512Z,79.04
2019-04-30T04:28:22.625Z,79.15
2019-04-30T04:30:51.763Z,79.20
2019-04-30T04:33:20.893Z,79.31
2019-04-30T04:35:50.193Z,79.37
2019-04-30T04:38:20.319Z,79.45
2019-04-30T04:40:50.397Z,79.32
2019-04-30T04:43:20.317Z,79.32
2019-04-30T04:45:50.068Z,79.19
2019-04-30T04:48:23.060Z,79.16
2019-04-30T04:50:50.394Z,79.25
2019-04-30T04:53:19.787Z,79.22
2019-04-30T04:55:49.990Z,78.95
2019-04-30T04:58:21.490Z,78.95
2019-04-30T05:00:50.265Z,79.28
2019-04-30T05:03:32.327Z,79.10
2019-04-30T05:06:02.937Z,79.04
2019-04-30T05:08:32.110Z,79.02
2019-04-30T05:11:01.317Z,79.06
2019-04-30T05:13:30.424Z,78.77
2019-04-30T05:15:59.583Z,78.78
2019-04-30T05:18:29.157Z,78.76
2019-04-30T05:20:58.998Z,78.68
2019-04-30T05:23:29.833Z,78.60
2019-04-30T05:25:59.128Z,78.72
2019-04-30T05:28:30.163Z,78.73
2019-04-30T05:30:59.445Z,78.72
2019-04-30T05:33:28.746Z,78.71
2019-04-30T05:35:59.398Z,78.70
2019-04-30T05:38:31.164Z,78.76
2019-04-30T05:40:59.735Z,78.74
2019-04-30T05:43:29.092Z,78.52
2019-04-30T05:45:58.703Z,78.61
2019-04-30T05:48:28.621Z,78.41
2019-04-30T05:50:59.148Z,78.49
2019-04-30T05:53:28.803Z,78.41
2019-04-30T05:55:59.321Z,78.57
2019-04-30T05:58:29.952Z,78.68
2019-04-30T06:00:59.830Z,78.81
2019-04-30T06:03:33.073Z,78.78
2019-04-30T06:06:00.074Z,78.89
2019-04-30T06:08:35.818Z,79.09
2019-04-30T06:11:12.470Z,79.27
2019-04-30T06:13:54.566Z,79.39
2019-04-30T06:16:25.424Z,79.77
2019-04-30T06:18:54.547Z,79.85
2019-04-30T06:21:23.847Z,80.05
2019-04-30T06:23:53.000Z,79.81
2019-04-30T06:26:22.677Z,79.71
2019-04-30T06:28:51.843Z,79.70
2019-04-30T06:31:31.907Z,79.72
2019-04-30T06:33:51.932Z,79.90
2019-04-30T06:36:21.462Z,80.07
2019-04-30T06:38:50.618Z,80.02
2019-04-30T06:41:19.905Z,79.95
2019-04-30T06:43:50.006Z,79.89
2019-04-30T06:46:19.182Z,79.90
2019-04-30T06:48:50.994Z,79.67
2019-04-30T06:51:20.210Z,79.73
2019-04-30T06:53:51.256Z,79.84
2019-04-30T06:56:20.209Z,79.90
2019-04-30T06:58:52.396Z,79.92
2019-04-30T07:01:20.253Z,80.23
2019-04-30T07:03:49.389Z,80.28
2019-04-30T07:06:29.155Z,80.13
2019-04-30T07:09:20.342Z,80.06
2019-04-30T07:12:02.967Z,79.86
2019-04-30T07:14:32.226Z,80.13
2019-04-30T07:17:01.405Z,80.39
2019-04-30T07:19:38.209Z,80.35
2019-04-30T07:22:02.928Z,80.46
2019-04-30T07:24:32.062Z,80.40
2019-04-30T07:27:02.872Z,80.22
2019-04-30T07:29:32.200Z,80.12
2019-04-30T07:32:01.390Z,80.15
2019-04-30T07:34:36.599Z,80.15
2019-04-30T07:37:11.831Z,80.16
2019-04-30T07:39:33.542Z,79.98
2019-04-30T07:42:02.764Z,79.82
2019-04-30T07:44:36.522Z,79.82
2019-04-30T07:47:02.758Z,79.82
2019-04-30T07:49:47.033Z,79.98
2019-04-30T07:52:03.500Z,79.92
2019-04-30T07:54:33.025Z,80.20
2019-04-30T07:57:02.185Z,80.49
2019-04-30T07:59:31.360Z,80.74
2019-04-30T08:02:10.232Z,80.79
2019-04-30T08:04:52.505Z,80.91
2019-04-30T08:07:21.779Z,80.87
2019-04-30T08:09:51.037Z,80.67
2019-04-30T08:12:26.123Z,80.71
2019-04-30T08:14:51.053Z,80.69
2019-04-30T08:17:20.196Z,80.75
2019-04-30T08:19:49.442Z,80.63
2019-04-30T08:22:19.598Z,80.58
2019-04-30T08:24:49.238Z,80.62
2019-04-30T08:27:19.668Z,80.50
2019-04-30T08:29:49.880Z,80.55
2019-04-30T08:32:19.306Z,80.40
2019-04-30T08:34:50.086Z,80.63
2019-04-30T08:37:20.196Z,80.68
2019-04-30T08:39:49.825Z,80.79
2019-04-30T08:42:30.841Z,80.74
2019-04-30T08:44:49.953Z,80.88
2019-04-30T08:47:21.294Z,80.80
2019-04-30T08:49:50.558Z,80.90
2019-04-30T08:52:20.457Z,80.89
2019-04-30T08:54:49.770Z,80.92
2019-04-30T08:57:19.307Z,80.87
2019-04-30T08:59:49.493Z,80.75
2019-04-30T09:02:19.757Z,80.59
2019-04-30T09:04:52.426Z,80.63
2019-04-30T09:07:21.548Z,80.59
2019-04-30T09:09:50.700Z,80.50
2019-04-30T09:12:19.845Z,80.53
2019-04-30T09:14:49.270Z,80.57
2019-04-30T09:17:19.861Z,80.79
2019-04-30T09:19:49.195Z,80.63
2019-04-30T09:22:19.549Z,80.58
2019-04-30T09:24:49.690Z,80.68
2019-04-30T09:27:19.537Z,80.79
2019-04-30T09:29:49.278Z,80.78
2019-04-30T09:32:19.352Z,80.58
2019-04-30T09:34:48.989Z,80.59
2019-04-30T09:37:18.690Z,80.47
2019-04-30T09:39:49.443Z,80.02
2019-04-30T09:42:19.571Z,79.86
2019-04-30T09:44:49.372Z,79.95
2019-04-30T09:47:20.055Z,79.39
2019-04-30T09:49:50.342Z,79.08
2019-04-30T09:52:20.065Z,79.20
2019-04-30T09:54:50.468Z,79.19
2019-04-30T09:57:20.048Z,78.98
2019-04-30T09:59:49.238Z,78.83
2019-04-30T10:02:19.127Z,78.40
2019-04-30T10:04:48.916Z,78.53
2019-04-30T10:07:19.501Z,78.44
2019-04-30T10:09:50.805Z,78.52
2019-04-30T10:12:19.754Z,78.29
2019-04-30T10:14:49.454Z,78.28
2019-04-30T10:17:43.885Z,77.87
2019-04-30T10:20:14.224Z,77.29
2019-04-30T10:22:43.366Z,77.34
2019-04-30T10:25:12.817Z,77.52
2019-04-30T10:27:42.018Z,76.27
2019-04-30T10:30:11.669Z,76.57
2019-04-30T10:32:40.787Z,76.33
2019-04-30T10:35:09.927Z,76.33
2019-04-30T10:37:39.119Z,76.55
2019-04-30T10:40:12.284Z,76.60
2019-04-30T10:42:41.436Z,76.25
2019-04-30T10:45:11.190Z,75.75
2019-04-30T10:47:40.412Z,75.79
2019-04-30T10:50:10.147Z,76.31
2019-04-30T10:52:39.467Z,76.00
2019-04-30T10:55:09.413Z,75.67
2019-04-30T10:57:39.657Z,74.37
2019-04-30T11:00:13.438Z,73.95
2019-04-30T11:02:42.696Z,73.20
2019-04-30T11:05:12.358Z,71.99
2019-04-30T11:07:41.472Z,71.02
2019-04-30T11:10:11.062Z,71.78
2019-04-30T11:12:40.204Z,72.16
2019-04-30T11:15:09.688Z,72.01
2019-04-30T11:17:39.645Z,71.77
2019-04-30T11:20:10.317Z,68.87
2019-04-30T11:22:39.935Z,69.30
2019-04-30T11:25:10.195Z,68.92
2019-04-30T11:27:40.767Z,68.81
2019-04-30T11:30:20.386Z,69.27
2019-04-30T11:32:42.917Z,68.47
2019-04-30T11:35:12.743Z,67.55
2019-04-30T11:37:41.911Z,67.37
2019-04-30T11:40:11.660Z,66.41
2019-04-30T11:42:40.917Z,66.30
2019-04-30T11:45:10.855Z,66.14
2019-04-30T11:47:40.152Z,66.35
2019-04-30T11:50:12.341Z,64.19
2019-04-30T11:52:41.724Z,62.63
2019-04-30T11:55:11.482Z,63.81
2019-04-30T11:57:40.785Z,63.70
2019-04-30T12:00:15.154Z,63.27
2019-04-30T12:02:46.909Z,63.72
2019-04-30T12:05:20.561Z,64.46
2019-04-30T12:08:05.740Z,64.57
2019-04-30T12:10:56.965Z,63.80
2019-04-30T12:13:27.392Z,65.62
2019-04-30T12:15:58.930Z,63.58
2019-04-30T12:18:27.857Z,61.86
2019-04-30T12:20:57.123Z,58.39
2019-04-30T12:23:26.329Z,57.98
2019-04-30T12:25:55.497Z,58.85
2019-04-30T12:28:27.233Z,58.51
2019-04-30T12:30:55.516Z,57.25
2019-04-30T12:33:24.815Z,58.13
2019-04-30T12:35:53.953Z,57.78
2019-04-30T12:38:23.135Z,58.73
2019-04-30T12:40:52.330Z,60.00
2019-04-30T12:43:21.537Z,59.92
2019-04-30T12:46:02.285Z,60.63
2019-04-30T12:48:44.570Z,59.74
2019-04-30T12:51:45.062Z,58.29
2019-04-30T12:54:20.030Z,58.34
2019-04-30T12:57:10.889Z,57.27
2019-04-30T12:59:39.122Z,57.75
2019-04-30T13:02:09.106Z,56.61
2019-04-30T13:04:39.368Z,55.55
2019-04-30T13:07:10.481Z,54.47
2019-04-30T13:09:40.622Z,53.72
2019-04-30T13:12:11.138Z,53.58
2019-04-30T13:14:51.481Z,53.75
2019-04-30T13:17:11.511Z,52.74
2019-04-30T13:19:40.644Z,51.37
2019-04-30T13:22:11.373Z,52.80
2019-04-30T13:24:40.710Z,49.25
2019-04-30T13:27:14.365Z,48.94
2019-04-30T13:29:56.101Z,48.94
2019-04-30T13:32:30.172Z,49.04
2019-04-30T13:35:00.992Z,48.33
2019-04-30T13:37:45.301Z,50.29
2019-04-30T13:40:32.372Z,51.28
2019-04-30T13:43:02.018Z,49.11
2019-04-30T13:45:31.210Z,50.00
2019-04-30T13:48:00.442Z,50.79
2019-04-30T13:50:29.602Z,50.02
2019-04-30T13:52:58.924Z,49.09
2019-04-30T13:55:30.538Z,48.36
2019-04-30T13:57:59.060Z,47.77
2019-04-30T14:00:29.760Z,48.21
2019-04-30T14:03:09.739Z,50.06
2019-04-30T14:05:39.032Z,50.91
2019-04-30T14:08:33.524Z,49.89
2019-04-30T14:11:03.783Z,49.89
2019-04-30T14:13:32.906Z,48.84
2019-04-30T14:16:02.055Z,47.65
2019-04-30T14:18:34.029Z,47.80
2019-04-30T14:21:02.221Z,47.75
2019-04-30T14:23:31.379Z,46.95
2019-04-30T14:26:01.174Z,47.04
2019-04-30T14:28:30.402Z,46.89
2019-04-30T14:30:59.611Z,47.81
2019-04-30T14:33:29.404Z,50.12
2019-04-30T14:36:00.760Z,50.75
2019-04-30T14:38:29.683Z,50.79
2019-04-30T14:41:00.678Z,49.83
2019-04-30T14:43:56.161Z,50.44
2019-04-30T14:46:45.062Z,49.99
2019-04-30T14:49:36.728Z,50.08
2019-04-30T14:52:06.510Z,50.80
2019-04-30T14:54:50.246Z,51.13
2019-04-30T14:57:34.770Z,51.17
2019-04-30T15:00:20.864Z,51.39
2019-04-30T15:02:58.572Z,50.76
2019-04-30T15:05:39.186Z,50.45
2019-04-30T15:08:01.475Z,49.89
2019-04-30T15:10:30.745Z,49.94
2019-04-30T15:13:00.220Z,49.73
2019-04-30T15:15:33.697Z,49.99
2019-04-30T15:18:02.902Z,49.69
2019-04-30T15:20:32.082Z,49.83
2019-04-30T15:23:21.885Z,49.39
2019-04-30T15:25:51.221Z,49.25
2019-04-30T15:28:20.353Z,49.41
2019-04-30T15:30:49.561Z,49.57
2019-04-30T15:33:25.665Z,48.87
2019-04-30T15:35:54.824Z,49.45
2019-04-30T15:38:42.967Z,48.74
2019-04-30T15:41:12.095Z,48.42
2019-04-30T15:43:41.257Z,48.00
2019-04-30T15:46:10.458Z,47.59
2019-04-30T15:48:39.600Z,47.68
2019-04-30T15:51:09.055Z,47.72
2019-04-30T15:53:39.312Z,48.27
2019-04-30T15:56:08.603Z,47.90
2019-04-30T15:58:39.539Z,47.96
2019-04-30T16:01:10.213Z,47.20
2019-04-30T16:03:40.975Z,48.07
2019-04-30T16:06:10.490Z,47.33
2019-04-30T16:08:48.127Z,47.02
2019-04-30T16:11:51.337Z,47.07
2019-04-30T16:14:27.019Z,47.29
2019-04-30T16:17:20.665Z,47.63
2019-04-30T16:19:50.179Z,47.78
2019-04-30T16:22:20.871Z,48.39
2019-04-30T16:24:50.144Z,48.35
2019-04-30T16:27:19.602Z,47.45
2019-04-30T16:29:49.781Z,46.28
2019-04-30T16:32:19.888Z,46.79
2019-04-30T16:34:49.837Z,47.02
2019-04-30T16:37:20.245Z,47.29
2019-04-30T16:39:49.497Z,48.23
2019-04-30T16:42:19.147Z,47.92
2019-04-30T16:44:48.293Z,47.62
2019-04-30T16:47:19.703Z,47.67
2019-04-30T16:49:49.357Z,48.23
2019-04-30T16:52:19.072Z,47.89
2019-04-30T16:54:50.085Z,48.47
2019-04-30T16:57:19.292Z,48.59
2019-04-30T16:59:49.975Z,48.70
2019-04-30T17:02:20.293Z,49.01
2019-04-30T17:05:00.434Z,48.90
2019-04-30T17:08:07.023Z,48.66
2019-04-30T17:10:58.025Z,48.93
2019-04-30T17:13:38.960Z,49.06
2019-04-30T17:16:14.275Z,49.22
2019-04-30T17:18:43.445Z,49.53
2019-04-30T17:21:12.701Z,49.81
2019-04-30T17:23:41.928Z,49.71
2019-04-30T17:26:12.364Z,50.03
2019-04-30T17:28:41.547Z,49.97
2019-04-30T17:31:13.401Z,49.79
2019-04-30T17:33:41.725Z,49.85
2019-04-30T17:36:11.224Z,50.38
2019-04-30T17:38:40.424Z,50.66
2019-04-30T17:41:10.789Z,50.73
2019-04-30T17:43:41.653Z,50.99
2019-04-30T17:46:11.180Z,50.90
2019-04-30T17:48:40.429Z,51.36
2019-04-30T17:51:09.697Z,51.38
2019-04-30T17:53:58.743Z,51.34
2019-04-30T17:56:28.224Z,51.42
2019-04-30T17:58:57.421Z,51.13
2019-04-30T18:01:26.772Z,51.04
2019-04-30T18:03:56.039Z,50.90
2019-04-30T18:06:26.393Z,50.14
2019-04-30T18:08:55.639Z,50.55
2019-04-30T18:11:24.998Z,50.16
2019-04-30T18:13:54.389Z,50.46
2019-04-30T18:16:23.645Z,50.49
2019-04-30T18:19:04.509Z,50.34
2019-04-30T18:21:38.578Z,50.17
2019-04-30T18:24:36.316Z,50.51
2019-04-30T18:27:20.918Z,50.74
2019-04-30T18:29:49.327Z,51.58
2019-04-30T18:32:19.845Z,53.39
2019-04-30T18:34:49.182Z,54.47
2019-04-30T18:37:18.902Z,55.45
2019-04-30T18:39:49.677Z,56.16
2019-04-30T18:42:19.407Z,56.96
2019-04-30T18:44:48.659Z,57.86
2019-04-30T18:47:18.905Z,58.31
2019-04-30T18:49:49.537Z,58.86
2019-04-30T18:52:19.050Z,58.43
2019-04-30T18:54:49.539Z,59.66
2019-04-30T18:57:18.839Z,59.72
2019-04-30T18:59:48.105Z,59.50
2019-04-30T19:02:17.774Z,60.01
2019-04-30T19:04:47.056Z,60.11
2019-04-30T19:07:28.246Z,60.39
2019-04-30T19:10:16.422Z,60.41
2019-04-30T19:13:04.301Z,60.52
2019-04-30T19:16:18.130Z,60.97
2019-04-30T19:18:31.787Z,60.85
2019-04-30T19:21:01.162Z,61.07
2019-04-30T19:23:30.608Z,61.31
2019-04-30T19:26:00.107Z,61.34
2019-04-30T19:28:29.680Z,61.54
2019-04-30T19:31:00.985Z,61.39
2019-04-30T19:33:31.154Z,61.67
2019-04-30T19:36:00.705Z,62.05
2019-04-30T19:38:29.986Z,62.02
2019-04-30T19:41:02.709Z,61.99
2019-04-30T19:43:32.011Z,62.03
2019-04-30T19:46:01.259Z,62.20
2019-04-30T19:48:31.326Z,62.34
2019-04-30T19:51:00.570Z,62.30
2019-04-30T19:53:30.392Z,62.48
2019-04-30T19:55:59.763Z,62.65
2019-04-30T19:58:46.382Z,62.82
2019-04-30T20:01:03.105Z,62.89
2019-04-30T20:03:33.687Z,63.32
2019-04-30T20:06:02.961Z,63.02
2019-04-30T20:08:33.238Z,63.42
2019-04-30T20:11:02.460Z,63.33
2019-04-30T20:13:36.998Z,63.24
2019-04-30T20:16:02.684Z,63.36
2019-04-30T20:18:31.884Z,63.41
2019-04-30T20:21:02.792Z,63.90
2019-04-30T20:23:31.953Z,63.92
2019-04-30T20:26:01.208Z,63.91
2019-04-30T20:28:39.136Z,63.83
2019-04-30T20:31:01.401Z,63.73
2019-04-30T20:33:30.678Z,63.77
2019-04-30T20:35:59.875Z,63.77
2019-04-30T20:38:53.853Z,63.76
2019-04-30T20:41:24.085Z,64.05
2019-04-30T20:43:53.347Z,63.99
2019-04-30T20:46:32.053Z,64.07
2019-04-30T20:48:53.501Z,64.04
2019-04-30T20:51:22.766Z,64.17
2019-04-30T20:53:51.921Z,64.20
2019-04-30T20:56:21.156Z,64.35
2019-04-30T20:58:57.766Z,64.41
2019-04-30T21:01:21.339Z,64.51
2019-04-30T21:03:50.585Z,64.58
2019-04-30T21:06:19.875Z,64.64
2019-04-30T21:08:48.944Z,64.80
2019-04-30T21:11:19.306Z,64.65
2019-04-30T21:13:49.141Z,65.04
2019-04-30T21:16:18.517Z,65.03
2019-04-30T21:18:47.788Z,65.15
2019-04-30T21:21:18.859Z,64.77
2019-04-30T21:23:49.158Z,64.76
2019-04-30T21:26:19.609Z,64.96
2019-04-30T21:28:49.421Z,64.86
2019-04-30T21:31:46.546Z,65.21
2019-04-30T21:34:24.557Z,65.21
2019-04-30T21:36:53.897Z,65.45
2019-04-30T21:39:23.025Z,65.43
2019-04-30T21:41:53.437Z,65.50
2019-04-30T21:44:22.646Z,65.48
2019-04-30T21:46:51.807Z,65.52
2019-04-30T21:49:21.173Z,65.57
2019-04-30T21:51:50.339Z,65.42
2019-04-30T21:54:19.626Z,65.27
2019-04-30T21:56:48.859Z,65.45
2019-04-30T21:59:24.490Z,65.63
2019-04-30T22:01:49.008Z,65.47
2019-04-30T22:04:18.213Z,65.36
2019-04-30T22:06:49.435Z,65.59
2019-04-30T22:09:18.535Z,65.70
2019-04-30T22:11:49.390Z,65.60
2019-04-30T22:14:18.637Z,65.52
2019-04-30T22:16:49.417Z,65.55
2019-04-30T22:19:18.540Z,65.74
2019-04-30T22:21:49.603Z,65.54
2019-04-30T22:24:18.787Z,65.75
2019-04-30T22:26:47.965Z,65.69
2019-04-30T22:29:19.019Z,65.64
2019-04-30T22:31:49.471Z,65.36
2019-04-30T22:34:18.915Z,65.36
2019-04-30T22:36:49.025Z,65.54
2019-04-30T22:39:32.748Z,65.68
2019-04-30T22:42:20.271Z,65.60
2019-04-30T22:44:49.537Z,65.65
2019-04-30T22:47:18.705Z,65.75
2019-04-30T22:52:12.383Z,66.14
2019-04-30T22:54:41.517Z,66.11
2019-04-30T22:57:11.006Z,66.31
2019-04-30T22:59:49.708Z,66.42
2019-04-30T23:02:28.032Z,66.63
2019-04-30T23:04:57.251Z,66.51
2019-04-30T23:07:26.427Z,66.58
2019-04-30T23:09:55.625Z,66.67
2019-04-30T23:12:24.759Z,66.64
2019-04-30T23:14:53.899Z,66.58
2019-04-30T23:17:23.025Z,66.42
2019-04-30T23:19:52.138Z,66.34
2019-04-30T23:22:21.269Z,66.32
2019-04-30T23:24:50.469Z,66.30
2019-04-30T23:27:19.664Z,66.47
2019-04-30T23:29:48.854Z,66.53
2019-04-30T23:32:17.971Z,66.53
2019-04-30T23:34:47.132Z,66.67
2019-04-30T23:37:16.297Z,66.79
2019-04-30T23:39:45.544Z,66.91
2019-04-30T23:42:14.633Z,67.01
2019-04-30T23:44:43.790Z,66.92
2019-04-30T23:47:12.962Z,66.90
2019-04-30T23:49:42.100Z,66.87
2019-04-30T23:52:11.257Z,66.84
2019-04-30T23:54:40.369Z,66.83
2019-04-30T23:57:09.492Z,66.71
2019-04-30T23:59:38.674Z,66.69
